sensor_id;sensor_type;location;lat;lon;timestamp;P1;durP1;ratioP1;P2;durP2;ratioP2
65831;SDS011;52593;42.648;23.332;2023-03-14T00:00:30;22.00;;;9.10;;
65831;SDS011;52593;42.648;23.332;2023-03-14T00:02:56;22.57;;;9.03;;
65831;SDS011;52593;42.648;23.332;2023-03-14T00:05:21;21.00;;;9.20;;
65831;SDS011;52593;42.648;23.332;2023-03-14T00:07:47;22.43;;;9.43;;
65831;SDS011;52593;42.648;23.332;2023-03-14T00:10:13;22.20;;;9.10;;
65831;SDS011;52593;42.648;23.332;2023-03-14T00:12:40;22.13;;;8.73;;
65831;SDS011;52593;42.648;23.332;2023-03-14T00:15:06;23.60;;;9.07;;
65831;SDS011;52593;42.648;23.332;2023-03-14T00:17:33;22.88;;;8.43;;
65831;SDS011;52593;42.648;23.332;2023-03-14T00:19:59;21.83;;;9.18;;
65831;SDS011;52593;42.648;23.332;2023-03-14T00:22:30;22.50;;;9.00;;
65831;SDS011;52593;42.648;23.332;2023-03-14T00:24:56;21.87;;;9.10;;
65831;SDS011;52593;42.648;23.332;2023-03-14T00:27:22;22.67;;;9.23;;
65831;SDS011;52593;42.648;23.332;2023-03-14T00:29:47;21.27;;;8.63;;
65831;SDS011;52593;42.648;23.332;2023-03-14T00:32:13;21.07;;;8.70;;
65831;SDS011;52593;42.648;23.332;2023-03-14T00:34:38;20.50;;;8.10;;
65831;SDS011;52593;42.648;23.332;2023-03-14T00:37:04;20.13;;;8.50;;
65831;SDS011;52593;42.648;23.332;2023-03-14T00:39:30;18.50;;;8.55;;
65831;SDS011;52593;42.648;23.332;2023-03-14T00:41:55;20.03;;;7.77;;
65831;SDS011;52593;42.648;23.332;2023-03-14T00:44:21;21.57;;;7.60;;
65831;SDS011;52593;42.648;23.332;2023-03-14T00:46:46;17.87;;;7.90;;
65831;SDS011;52593;42.648;23.332;2023-03-14T00:49:12;19.73;;;8.20;;
65831;SDS011;52593;42.648;23.332;2023-03-14T00:51:37;18.33;;;7.57;;
65831;SDS011;52593;42.648;23.332;2023-03-14T00:54:02;17.33;;;7.73;;
65831;SDS011;52593;42.648;23.332;2023-03-14T00:56:28;20.83;;;8.07;;
65831;SDS011;52593;42.648;23.332;2023-03-14T00:58:54;19.80;;;7.87;;
65831;SDS011;52593;42.648;23.332;2023-03-14T01:01:20;17.70;;;7.90;;
65831;SDS011;52593;42.648;23.332;2023-03-14T01:03:46;18.58;;;7.00;;
65831;SDS011;52593;42.648;23.332;2023-03-14T01:06:13;17.23;;;8.33;;
65831;SDS011;52593;42.648;23.332;2023-03-14T01:08:43;16.02;;;7.47;;
65831;SDS011;52593;42.648;23.332;2023-03-14T01:11:09;16.63;;;7.28;;
65831;SDS011;52593;42.648;23.332;2023-03-14T01:13:37;18.38;;;7.88;;
65831;SDS011;52593;42.648;23.332;2023-03-14T01:16:03;18.10;;;7.80;;
65831;SDS011;52593;42.648;23.332;2023-03-14T01:18:31;22.08;;;7.78;;
65831;SDS011;52593;42.648;23.332;2023-03-14T01:20:57;16.15;;;7.20;;
65831;SDS011;52593;42.648;23.332;2023-03-14T01:23:23;20.37;;;7.93;;
65831;SDS011;52593;42.648;23.332;2023-03-14T01:25:48;14.67;;;6.67;;
65831;SDS011;52593;42.648;23.332;2023-03-14T01:28:13;17.87;;;7.30;;
65831;SDS011;52593;42.648;23.332;2023-03-14T01:30:40;17.47;;;7.70;;
65831;SDS011;52593;42.648;23.332;2023-03-14T01:33:05;17.97;;;7.57;;
65831;SDS011;52593;42.648;23.332;2023-03-14T01:35:31;21.40;;;8.47;;
65831;SDS011;52593;42.648;23.332;2023-03-14T01:37:56;21.27;;;8.73;;
65831;SDS011;52593;42.648;23.332;2023-03-14T01:40:22;17.73;;;7.57;;
65831;SDS011;52593;42.648;23.332;2023-03-14T01:42:57;21.30;;;8.63;;
65831;SDS011;52593;42.648;23.332;2023-03-14T01:48:24;23.67;;;8.52;;
65831;SDS011;52593;42.648;23.332;2023-03-14T01:50:53;18.95;;;8.18;;
65831;SDS011;52593;42.648;23.332;2023-03-14T01:53:18;20.83;;;8.47;;
65831;SDS011;52593;42.648;23.332;2023-03-14T01:55:46;20.23;;;8.55;;
65831;SDS011;52593;42.648;23.332;2023-03-14T01:58:13;20.70;;;8.43;;
65831;SDS011;52593;42.648;23.332;2023-03-14T02:00:41;20.00;;;9.02;;
65831;SDS011;52593;42.648;23.332;2023-03-14T02:03:09;21.77;;;8.67;;
65831;SDS011;52593;42.648;23.332;2023-03-14T02:05:39;21.58;;;8.00;;
65831;SDS011;52593;42.648;23.332;2023-03-14T02:08:08;20.93;;;8.43;;
65831;SDS011;52593;42.648;23.332;2023-03-14T02:10:41;22.95;;;8.20;;
65831;SDS011;52593;42.648;23.332;2023-03-14T02:13:09;24.20;;;8.73;;
65831;SDS011;52593;42.648;23.332;2023-03-14T02:15:35;22.25;;;9.45;;
65831;SDS011;52593;42.648;23.332;2023-03-14T02:18:02;21.27;;;9.20;;
65831;SDS011;52593;42.648;23.332;2023-03-14T02:23:13;23.55;;;9.35;;
65831;SDS011;52593;42.648;23.332;2023-03-14T02:25:49;22.95;;;9.10;;
65831;SDS011;52593;42.648;23.332;2023-03-14T02:28:22;26.63;;;10.02;;
65831;SDS011;52593;42.648;23.332;2023-03-14T02:30:48;24.43;;;9.20;;
65831;SDS011;52593;42.648;23.332;2023-03-14T02:33:15;23.55;;;9.63;;
65831;SDS011;52593;42.648;23.332;2023-03-14T02:41:04;20.57;;;8.43;;
65831;SDS011;52593;42.648;23.332;2023-03-14T02:43:30;20.13;;;8.68;;
65831;SDS011;52593;42.648;23.332;2023-03-14T02:45:56;22.37;;;8.43;;
65831;SDS011;52593;42.648;23.332;2023-03-14T02:50:50;19.00;;;7.70;;
65831;SDS011;52593;42.648;23.332;2023-03-14T02:53:20;19.70;;;8.15;;
65831;SDS011;52593;42.648;23.332;2023-03-14T02:55:49;19.30;;;7.95;;
65831;SDS011;52593;42.648;23.332;2023-03-14T02:58:15;18.08;;;7.90;;
65831;SDS011;52593;42.648;23.332;2023-03-14T03:00:42;20.17;;;8.33;;
65831;SDS011;52593;42.648;23.332;2023-03-14T03:03:07;20.08;;;7.78;;
65831;SDS011;52593;42.648;23.332;2023-03-14T03:05:33;21.60;;;8.57;;
65831;SDS011;52593;42.648;23.332;2023-03-14T03:07:59;20.23;;;8.40;;
65831;SDS011;52593;42.648;23.332;2023-03-14T03:10:24;21.60;;;8.20;;
65831;SDS011;52593;42.648;23.332;2023-03-14T03:12:49;19.17;;;7.43;;
65831;SDS011;52593;42.648;23.332;2023-03-14T03:15:16;20.05;;;8.07;;
65831;SDS011;52593;42.648;23.332;2023-03-14T03:17:42;20.83;;;7.85;;
65831;SDS011;52593;42.648;23.332;2023-03-14T03:20:07;17.37;;;7.77;;
65831;SDS011;52593;42.648;23.332;2023-03-14T03:22:34;21.58;;;7.43;;
65831;SDS011;52593;42.648;23.332;2023-03-14T03:25:01;16.98;;;7.55;;
65831;SDS011;52593;42.648;23.332;2023-03-14T03:27:26;18.50;;;7.57;;
65831;SDS011;52593;42.648;23.332;2023-03-14T03:29:51;16.17;;;7.60;;
65831;SDS011;52593;42.648;23.332;2023-03-14T03:32:17;18.97;;;7.60;;
65831;SDS011;52593;42.648;23.332;2023-03-14T03:34:42;15.43;;;7.33;;
65831;SDS011;52593;42.648;23.332;2023-03-14T03:37:08;17.17;;;7.70;;
65831;SDS011;52593;42.648;23.332;2023-03-14T03:39:33;20.33;;;7.33;;
65831;SDS011;52593;42.648;23.332;2023-03-14T03:41:59;20.00;;;7.97;;
65831;SDS011;52593;42.648;23.332;2023-03-14T03:44:24;16.58;;;7.32;;
65831;SDS011;52593;42.648;23.332;2023-03-14T03:46:49;18.10;;;7.80;;
65831;SDS011;52593;42.648;23.332;2023-03-14T03:49:15;16.30;;;6.90;;
65831;SDS011;52593;42.648;23.332;2023-03-14T03:51:40;18.13;;;7.43;;
65831;SDS011;52593;42.648;23.332;2023-03-14T03:54:06;17.60;;;7.85;;
65831;SDS011;52593;42.648;23.332;2023-03-14T03:56:31;18.30;;;7.50;;
65831;SDS011;52593;42.648;23.332;2023-03-14T03:58:57;19.27;;;7.33;;
65831;SDS011;52593;42.648;23.332;2023-03-14T04:01:22;19.40;;;7.80;;
65831;SDS011;52593;42.648;23.332;2023-03-14T04:03:48;19.37;;;7.80;;
65831;SDS011;52593;42.648;23.332;2023-03-14T04:06:14;18.33;;;7.67;;
65831;SDS011;52593;42.648;23.332;2023-03-14T04:08:39;18.13;;;7.70;;
65831;SDS011;52593;42.648;23.332;2023-03-14T04:11:06;21.15;;;8.05;;
65831;SDS011;52593;42.648;23.332;2023-03-14T04:13:32;20.15;;;7.30;;
65831;SDS011;52593;42.648;23.332;2023-03-14T04:15:57;17.70;;;7.17;;
65831;SDS011;52593;42.648;23.332;2023-03-14T04:18:23;16.63;;;6.93;;
65831;SDS011;52593;42.648;23.332;2023-03-14T04:20:52;22.10;;;8.07;;
65831;SDS011;52593;42.648;23.332;2023-03-14T04:23:22;18.40;;;7.22;;
65831;SDS011;52593;42.648;23.332;2023-03-14T04:25:52;17.98;;;7.35;;
65831;SDS011;52593;42.648;23.332;2023-03-14T04:28:18;18.37;;;7.87;;
65831;SDS011;52593;42.648;23.332;2023-03-14T04:30:43;19.40;;;8.57;;
65831;SDS011;52593;42.648;23.332;2023-03-14T04:33:08;17.53;;;7.83;;
65831;SDS011;52593;42.648;23.332;2023-03-14T04:35:34;18.25;;;7.30;;
65831;SDS011;52593;42.648;23.332;2023-03-14T04:38:00;20.90;;;8.00;;
65831;SDS011;52593;42.648;23.332;2023-03-14T04:40:25;20.40;;;7.93;;
65831;SDS011;52593;42.648;23.332;2023-03-14T04:42:51;24.33;;;7.80;;
65831;SDS011;52593;42.648;23.332;2023-03-14T04:45:16;18.98;;;8.00;;
65831;SDS011;52593;42.648;23.332;2023-03-14T04:47:42;20.53;;;7.87;;
65831;SDS011;52593;42.648;23.332;2023-03-14T04:50:07;18.03;;;7.60;;
65831;SDS011;52593;42.648;23.332;2023-03-14T04:52:33;18.25;;;7.90;;
65831;SDS011;52593;42.648;23.332;2023-03-14T04:54:59;26.80;;;8.33;;
65831;SDS011;52593;42.648;23.332;2023-03-14T04:57:24;18.93;;;7.60;;
65831;SDS011;52593;42.648;23.332;2023-03-14T04:59:50;20.60;;;8.15;;
65831;SDS011;52593;42.648;23.332;2023-03-14T05:02:15;16.97;;;7.23;;
65831;SDS011;52593;42.648;23.332;2023-03-14T05:04:40;22.53;;;7.93;;
65831;SDS011;52593;42.648;23.332;2023-03-14T05:07:06;20.77;;;7.40;;
65831;SDS011;52593;42.648;23.332;2023-03-14T05:09:31;22.30;;;8.07;;
65831;SDS011;52593;42.648;23.332;2023-03-14T05:11:57;22.15;;;9.13;;
65831;SDS011;52593;42.648;23.332;2023-03-14T05:14:22;21.63;;;8.00;;
65831;SDS011;52593;42.648;23.332;2023-03-14T05:16:47;23.30;;;8.57;;
65831;SDS011;52593;42.648;23.332;2023-03-14T05:19:13;26.07;;;8.37;;
65831;SDS011;52593;42.648;23.332;2023-03-14T05:21:38;23.03;;;8.43;;
65831;SDS011;52593;42.648;23.332;2023-03-14T05:24:04;21.53;;;8.57;;
65831;SDS011;52593;42.648;23.332;2023-03-14T05:26:29;26.43;;;9.00;;
65831;SDS011;52593;42.648;23.332;2023-03-14T05:28:55;22.87;;;8.57;;
65831;SDS011;52593;42.648;23.332;2023-03-14T05:31:20;27.75;;;8.63;;
65831;SDS011;52593;42.648;23.332;2023-03-14T05:33:45;23.47;;;9.10;;
65831;SDS011;52593;42.648;23.332;2023-03-14T05:36:11;23.20;;;9.60;;
65831;SDS011;52593;42.648;23.332;2023-03-14T05:38:37;24.40;;;9.63;;
65831;SDS011;52593;42.648;23.332;2023-03-14T05:41:02;33.53;;;10.55;;
65831;SDS011;52593;42.648;23.332;2023-03-14T05:43:28;22.87;;;9.03;;
65831;SDS011;52593;42.648;23.332;2023-03-14T05:45:53;21.60;;;9.02;;
65831;SDS011;52593;42.648;23.332;2023-03-14T05:48:19;23.53;;;9.30;;
65831;SDS011;52593;42.648;23.332;2023-03-14T05:50:44;25.93;;;9.27;;
65831;SDS011;52593;42.648;23.332;2023-03-14T05:53:10;24.40;;;8.63;;
65831;SDS011;52593;42.648;23.332;2023-03-14T05:55:35;18.83;;;7.68;;
65831;SDS011;52593;42.648;23.332;2023-03-14T05:58:01;22.00;;;8.70;;
65831;SDS011;52593;42.648;23.332;2023-03-14T06:00:26;22.47;;;8.50;;
65831;SDS011;52593;42.648;23.332;2023-03-14T06:02:52;21.00;;;8.57;;
65831;SDS011;52593;42.648;23.332;2023-03-14T06:05:17;16.75;;;6.88;;
65831;SDS011;52593;42.648;23.332;2023-03-14T06:07:43;17.73;;;7.33;;
65831;SDS011;52593;42.648;23.332;2023-03-14T06:10:08;22.07;;;8.53;;
65831;SDS011;52593;42.648;23.332;2023-03-14T06:12:34;22.10;;;9.48;;
65831;SDS011;52593;42.648;23.332;2023-03-14T06:14:59;16.10;;;7.37;;
65831;SDS011;52593;42.648;23.332;2023-03-14T06:17:25;22.38;;;8.27;;
65831;SDS011;52593;42.648;23.332;2023-03-14T06:19:50;29.00;;;9.53;;
65831;SDS011;52593;42.648;23.332;2023-03-14T06:22:16;20.67;;;8.63;;
65831;SDS011;52593;42.648;23.332;2023-03-14T06:24:41;21.50;;;8.77;;
65831;SDS011;52593;42.648;23.332;2023-03-14T06:27:06;22.87;;;9.00;;
65831;SDS011;52593;42.648;23.332;2023-03-14T06:29:32;25.05;;;9.25;;
65831;SDS011;52593;42.648;23.332;2023-03-14T06:31:57;21.37;;;9.17;;
65831;SDS011;52593;42.648;23.332;2023-03-14T06:34:23;27.77;;;9.20;;
65831;SDS011;52593;42.648;23.332;2023-03-14T06:36:48;24.37;;;10.23;;
65831;SDS011;52593;42.648;23.332;2023-03-14T06:39:13;24.20;;;9.30;;
65831;SDS011;52593;42.648;23.332;2023-03-14T06:41:39;23.30;;;9.98;;
65831;SDS011;52593;42.648;23.332;2023-03-14T06:44:04;23.57;;;9.33;;
65831;SDS011;52593;42.648;23.332;2023-03-14T06:46:30;22.83;;;9.07;;
65831;SDS011;52593;42.648;23.332;2023-03-14T06:48:55;20.07;;;8.53;;
65831;SDS011;52593;42.648;23.332;2023-03-14T06:51:21;23.00;;;8.10;;
65831;SDS011;52593;42.648;23.332;2023-03-14T06:53:46;22.90;;;8.70;;
65831;SDS011;52593;42.648;23.332;2023-03-14T06:56:11;22.90;;;8.37;;
65831;SDS011;52593;42.648;23.332;2023-03-14T06:58:37;25.60;;;8.70;;
65831;SDS011;52593;42.648;23.332;2023-03-14T07:01:02;20.17;;;7.97;;
65831;SDS011;52593;42.648;23.332;2023-03-14T07:03:28;15.52;;;6.18;;
65831;SDS011;52593;42.648;23.332;2023-03-14T07:05:54;15.50;;;6.07;;
65831;SDS011;52593;42.648;23.332;2023-03-14T07:08:19;10.90;;;4.88;;
65831;SDS011;52593;42.648;23.332;2023-03-14T07:10:44;14.67;;;5.37;;
65831;SDS011;52593;42.648;23.332;2023-03-14T07:13:10;13.97;;;5.57;;
65831;SDS011;52593;42.648;23.332;2023-03-14T07:15:35;16.03;;;5.17;;
65831;SDS011;52593;42.648;23.332;2023-03-14T07:18:01;14.57;;;5.43;;
65831;SDS011;52593;42.648;23.332;2023-03-14T07:20:26;15.43;;;5.10;;
65831;SDS011;52593;42.648;23.332;2023-03-14T07:22:52;12.90;;;5.17;;
65831;SDS011;52593;42.648;23.332;2023-03-14T07:25:17;10.97;;;4.90;;
65831;SDS011;52593;42.648;23.332;2023-03-14T07:27:43;12.10;;;4.60;;
65831;SDS011;52593;42.648;23.332;2023-03-14T07:30:10;13.60;;;5.23;;
65831;SDS011;52593;42.648;23.332;2023-03-14T07:32:36;13.82;;;4.88;;
65831;SDS011;52593;42.648;23.332;2023-03-14T07:35:01;13.80;;;4.50;;
65831;SDS011;52593;42.648;23.332;2023-03-14T07:37:26;19.65;;;5.25;;
65831;SDS011;52593;42.648;23.332;2023-03-14T07:39:52;12.80;;;5.30;;
65831;SDS011;52593;42.648;23.332;2023-03-14T07:42:17;14.80;;;5.73;;
65831;SDS011;52593;42.648;23.332;2023-03-14T07:44:43;15.80;;;6.17;;
65831;SDS011;52593;42.648;23.332;2023-03-14T07:47:08;14.87;;;5.80;;
65831;SDS011;52593;42.648;23.332;2023-03-14T07:49:33;17.07;;;6.00;;
65831;SDS011;52593;42.648;23.332;2023-03-14T07:51:59;17.13;;;6.00;;
65831;SDS011;52593;42.648;23.332;2023-03-14T07:54:24;14.53;;;5.93;;
65831;SDS011;52593;42.648;23.332;2023-03-14T07:56:50;18.83;;;6.00;;
65831;SDS011;52593;42.648;23.332;2023-03-14T07:59:17;14.15;;;6.40;;
65831;SDS011;52593;42.648;23.332;2023-03-14T08:01:42;14.88;;;5.78;;
65831;SDS011;52593;42.648;23.332;2023-03-14T08:04:08;12.80;;;5.70;;
65831;SDS011;52593;42.648;23.332;2023-03-14T08:06:34;19.37;;;7.60;;
65831;SDS011;52593;42.648;23.332;2023-03-14T08:09:00;13.90;;;5.82;;
65831;SDS011;52593;42.648;23.332;2023-03-14T08:11:26;16.45;;;6.53;;
65831;SDS011;52593;42.648;23.332;2023-03-14T08:13:51;17.70;;;6.20;;
65831;SDS011;52593;42.648;23.332;2023-03-14T08:16:17;15.50;;;6.53;;
65831;SDS011;52593;42.648;23.332;2023-03-14T08:18:43;13.80;;;6.43;;
65831;SDS011;52593;42.648;23.332;2023-03-14T08:21:09;15.87;;;6.43;;
65831;SDS011;52593;42.648;23.332;2023-03-14T08:23:35;13.85;;;6.50;;
65831;SDS011;52593;42.648;23.332;2023-03-14T08:26:00;13.87;;;6.00;;
65831;SDS011;52593;42.648;23.332;2023-03-14T08:28:26;17.02;;;5.78;;
65831;SDS011;52593;42.648;23.332;2023-03-14T08:30:55;12.82;;;5.35;;
65831;SDS011;52593;42.648;23.332;2023-03-14T08:33:22;12.57;;;5.17;;
65831;SDS011;52593;42.648;23.332;2023-03-14T08:35:48;14.50;;;6.47;;
65831;SDS011;52593;42.648;23.332;2023-03-14T08:38:13;17.50;;;7.23;;
65831;SDS011;52593;42.648;23.332;2023-03-14T08:40:38;15.13;;;5.83;;
65831;SDS011;52593;42.648;23.332;2023-03-14T08:43:04;16.70;;;6.63;;
65831;SDS011;52593;42.648;23.332;2023-03-14T08:45:29;16.57;;;6.87;;
65831;SDS011;52593;42.648;23.332;2023-03-14T08:47:54;16.30;;;6.80;;
65831;SDS011;52593;42.648;23.332;2023-03-14T08:50:20;15.03;;;6.37;;
65831;SDS011;52593;42.648;23.332;2023-03-14T08:52:45;15.77;;;6.67;;
65831;SDS011;52593;42.648;23.332;2023-03-14T08:55:11;19.88;;;7.75;;
65831;SDS011;52593;42.648;23.332;2023-03-14T08:57:36;17.93;;;7.63;;
65831;SDS011;52593;42.648;23.332;2023-03-14T09:00:02;18.90;;;6.57;;
65831;SDS011;52593;42.648;23.332;2023-03-14T09:02:31;19.65;;;7.32;;
65831;SDS011;52593;42.648;23.332;2023-03-14T09:04:56;17.88;;;8.60;;
65831;SDS011;52593;42.648;23.332;2023-03-14T09:07:21;15.73;;;7.47;;
65831;SDS011;52593;42.648;23.332;2023-03-14T09:09:47;14.97;;;6.73;;
65831;SDS011;52593;42.648;23.332;2023-03-14T09:12:12;16.73;;;7.83;;
65831;SDS011;52593;42.648;23.332;2023-03-14T09:14:38;21.63;;;7.78;;
65831;SDS011;52593;42.648;23.332;2023-03-14T09:17:03;24.23;;;7.90;;
65831;SDS011;52593;42.648;23.332;2023-03-14T09:19:29;20.98;;;8.20;;
65831;SDS011;52593;42.648;23.332;2023-03-14T09:21:55;17.70;;;7.80;;
65831;SDS011;52593;42.648;23.332;2023-03-14T09:24:20;17.43;;;7.23;;
65831;SDS011;52593;42.648;23.332;2023-03-14T09:26:46;16.35;;;6.30;;
65831;SDS011;52593;42.648;23.332;2023-03-14T09:29:11;15.47;;;6.23;;
65831;SDS011;52593;42.648;23.332;2023-03-14T09:31:37;13.27;;;6.17;;
65831;SDS011;52593;42.648;23.332;2023-03-14T09:34:03;15.68;;;6.35;;
65831;SDS011;52593;42.648;23.332;2023-03-14T09:36:28;14.30;;;6.80;;
65831;SDS011;52593;42.648;23.332;2023-03-14T09:38:55;19.92;;;7.28;;
65831;SDS011;52593;42.648;23.332;2023-03-14T09:41:31;17.27;;;7.30;;
65831;SDS011;52593;42.648;23.332;2023-03-14T09:44:06;17.40;;;7.60;;
65831;SDS011;52593;42.648;23.332;2023-03-14T09:47:00;14.20;;;6.57;;
65831;SDS011;52593;42.648;23.332;2023-03-14T09:49:31;18.42;;;7.43;;
65831;SDS011;52593;42.648;23.332;2023-03-14T09:52:05;18.27;;;6.82;;
65831;SDS011;52593;42.648;23.332;2023-03-14T09:54:43;16.27;;;6.80;;
65831;SDS011;52593;42.648;23.332;2023-03-14T09:57:14;15.90;;;6.93;;
65831;SDS011;52593;42.648;23.332;2023-03-14T09:59:43;21.02;;;9.32;;
65831;SDS011;52593;42.648;23.332;2023-03-14T10:02:18;18.65;;;7.13;;
65831;SDS011;52593;42.648;23.332;2023-03-14T10:04:46;16.92;;;6.85;;
65831;SDS011;52593;42.648;23.332;2023-03-14T10:07:13;14.37;;;5.97;;
65831;SDS011;52593;42.648;23.332;2023-03-14T10:09:42;14.32;;;7.05;;
65831;SDS011;52593;42.648;23.332;2023-03-14T10:12:09;16.83;;;6.20;;
65831;SDS011;52593;42.648;23.332;2023-03-14T10:14:36;20.55;;;6.63;;
65831;SDS011;52593;42.648;23.332;2023-03-14T10:17:10;15.48;;;6.65;;
65831;SDS011;52593;42.648;23.332;2023-03-14T10:19:50;12.97;;;6.77;;
65831;SDS011;52593;42.648;23.332;2023-03-14T10:22:21;16.17;;;6.68;;
65831;SDS011;52593;42.648;23.332;2023-03-14T10:24:52;17.20;;;6.80;;
65831;SDS011;52593;42.648;23.332;2023-03-14T10:27:22;18.75;;;6.85;;
65831;SDS011;52593;42.648;23.332;2023-03-14T10:29:54;15.55;;;6.22;;
65831;SDS011;52593;42.648;23.332;2023-03-14T10:32:23;15.27;;;6.47;;
65831;SDS011;52593;42.648;23.332;2023-03-14T10:35:05;15.68;;;6.70;;
65831;SDS011;52593;42.648;23.332;2023-03-14T10:37:34;14.38;;;6.15;;
65831;SDS011;52593;42.648;23.332;2023-03-14T10:40:00;15.32;;;6.20;;
65831;SDS011;52593;42.648;23.332;2023-03-14T10:42:34;13.18;;;5.88;;
65831;SDS011;52593;42.648;23.332;2023-03-14T10:45:15;16.33;;;5.50;;
65831;SDS011;52593;42.648;23.332;2023-03-14T10:47:53;11.30;;;5.03;;
65831;SDS011;52593;42.648;23.332;2023-03-14T10:50:28;16.43;;;6.27;;
65831;SDS011;52593;42.648;23.332;2023-03-14T10:52:56;13.07;;;5.35;;
65831;SDS011;52593;42.648;23.332;2023-03-14T10:55:25;11.48;;;4.93;;
65831;SDS011;52593;42.648;23.332;2023-03-14T10:57:51;11.18;;;4.82;;
65831;SDS011;52593;42.648;23.332;2023-03-14T11:06:19;17.65;;;7.03;;
65831;SDS011;52593;42.648;23.332;2023-03-14T11:10:54;11.35;;;4.32;;
65831;SDS011;52593;42.648;23.332;2023-03-14T11:17:07;10.00;;;3.83;;
65831;SDS011;52593;42.648;23.332;2023-03-14T11:22:32;11.13;;;3.72;;
65831;SDS011;52593;42.648;23.332;2023-03-14T11:30:52;8.10;;;4.13;;
65831;SDS011;52593;42.648;23.332;2023-03-14T11:36:08;9.18;;;5.30;;
65831;SDS011;52593;42.648;23.332;2023-03-14T11:38:47;11.02;;;3.72;;
65831;SDS011;52593;42.648;23.332;2023-03-14T11:41:30;6.43;;;2.70;;
65831;SDS011;52593;42.648;23.332;2023-03-14T11:44:02;8.07;;;2.80;;
65831;SDS011;52593;42.648;23.332;2023-03-14T11:46:38;9.55;;;3.40;;
65831;SDS011;52593;42.648;23.332;2023-03-14T11:51:59;8.90;;;3.08;;
65831;SDS011;52593;42.648;23.332;2023-03-14T11:56:59;9.50;;;2.90;;
65831;SDS011;52593;42.648;23.332;2023-03-14T12:00:14;9.05;;;2.53;;
65831;SDS011;52593;42.648;23.332;2023-03-14T12:13:17;10.07;;;5.20;;
65831;SDS011;52593;42.648;23.332;2023-03-14T12:15:53;7.30;;;2.83;;
65831;SDS011;52593;42.648;23.332;2023-03-14T12:18:28;7.70;;;3.00;;
65831;SDS011;52593;42.648;23.332;2023-03-14T12:20:56;7.13;;;3.00;;
65831;SDS011;52593;42.648;23.332;2023-03-14T12:23:25;9.57;;;3.00;;
65831;SDS011;52593;42.648;23.332;2023-03-14T12:26:08;8.80;;;3.08;;
65831;SDS011;52593;42.648;23.332;2023-03-14T12:28:37;8.20;;;3.30;;
65831;SDS011;52593;42.648;23.332;2023-03-14T12:31:48;7.03;;;2.85;;
65831;SDS011;52593;42.648;23.332;2023-03-14T12:39:31;7.28;;;2.47;;
65831;SDS011;52593;42.648;23.332;2023-03-14T12:42:05;7.68;;;2.60;;
65831;SDS011;52593;42.648;23.332;2023-03-14T12:50:07;6.13;;;2.63;;
65831;SDS011;52593;42.648;23.332;2023-03-14T12:52:45;6.45;;;2.92;;
65831;SDS011;52593;42.648;23.332;2023-03-14T12:55:19;6.18;;;2.50;;
65831;SDS011;52593;42.648;23.332;2023-03-14T13:00:55;6.85;;;2.50;;
65831;SDS011;52593;42.648;23.332;2023-03-14T13:03:26;5.73;;;2.33;;
65831;SDS011;52593;42.648;23.332;2023-03-14T13:06:04;5.07;;;2.05;;
65831;SDS011;52593;42.648;23.332;2023-03-14T13:08:43;5.15;;;2.03;;
65831;SDS011;52593;42.648;23.332;2023-03-14T13:11:12;6.93;;;2.28;;
65831;SDS011;52593;42.648;23.332;2023-03-14T13:13:47;5.93;;;2.10;;
65831;SDS011;52593;42.648;23.332;2023-03-14T13:16:17;6.30;;;2.00;;
65831;SDS011;52593;42.648;23.332;2023-03-14T13:18:45;6.72;;;2.00;;
65831;SDS011;52593;42.648;23.332;2023-03-14T13:23:53;10.35;;;4.28;;
65831;SDS011;52593;42.648;23.332;2023-03-14T13:26:19;12.23;;;5.07;;
65831;SDS011;52593;42.648;23.332;2023-03-14T13:28:45;7.25;;;2.20;;
65831;SDS011;52593;42.648;23.332;2023-03-14T13:31:18;5.45;;;1.85;;
65831;SDS011;52593;42.648;23.332;2023-03-14T13:33:56;5.00;;;1.90;;
65831;SDS011;52593;42.648;23.332;2023-03-14T13:36:22;5.32;;;2.00;;
65831;SDS011;52593;42.648;23.332;2023-03-14T13:38:54;7.43;;;2.10;;
65831;SDS011;52593;42.648;23.332;2023-03-14T13:41:22;4.53;;;2.10;;
65831;SDS011;52593;42.648;23.332;2023-03-14T13:43:48;4.50;;;1.80;;
65831;SDS011;52593;42.648;23.332;2023-03-14T13:46:15;5.10;;;1.93;;
65831;SDS011;52593;42.648;23.332;2023-03-14T13:48:45;9.40;;;3.00;;
65831;SDS011;52593;42.648;23.332;2023-03-14T13:51:17;5.88;;;2.30;;
65831;SDS011;52593;42.648;23.332;2023-03-14T13:53:45;5.50;;;2.22;;
65831;SDS011;52593;42.648;23.332;2023-03-14T13:56:11;5.57;;;1.90;;
65831;SDS011;52593;42.648;23.332;2023-03-14T13:58:39;5.07;;;1.87;;
65831;SDS011;52593;42.648;23.332;2023-03-14T14:01:27;4.97;;;1.80;;
65831;SDS011;52593;42.648;23.332;2023-03-14T14:03:57;7.22;;;2.00;;
65831;SDS011;52593;42.648;23.332;2023-03-14T14:08:52;4.80;;;2.20;;
65831;SDS011;52593;42.648;23.332;2023-03-14T14:11:33;8.90;;;2.20;;
65831;SDS011;52593;42.648;23.332;2023-03-14T14:13:58;6.22;;;1.90;;
65831;SDS011;52593;42.648;23.332;2023-03-14T14:16:24;5.97;;;2.10;;
65831;SDS011;52593;42.648;23.332;2023-03-14T14:18:53;5.57;;;1.90;;
65831;SDS011;52593;42.648;23.332;2023-03-14T14:21:20;6.40;;;2.10;;
65831;SDS011;52593;42.648;23.332;2023-03-14T14:23:46;8.57;;;1.90;;
65831;SDS011;52593;42.648;23.332;2023-03-14T14:26:18;5.35;;;1.63;;
65831;SDS011;52593;42.648;23.332;2023-03-14T14:28:45;4.80;;;2.20;;
65831;SDS011;52593;42.648;23.332;2023-03-14T14:36:19;5.30;;;1.58;;
65831;SDS011;52593;42.648;23.332;2023-03-14T14:38:57;4.60;;;1.88;;
65831;SDS011;52593;42.648;23.332;2023-03-14T14:41:28;6.20;;;2.33;;
65831;SDS011;52593;42.648;23.332;2023-03-14T14:43:55;8.30;;;2.50;;
65831;SDS011;52593;42.648;23.332;2023-03-14T14:46:21;4.70;;;1.90;;
65831;SDS011;52593;42.648;23.332;2023-03-14T14:48:47;8.17;;;1.87;;
65831;SDS011;52593;42.648;23.332;2023-03-14T14:51:23;4.57;;;1.58;;
65831;SDS011;52593;42.648;23.332;2023-03-14T14:53:59;5.82;;;1.77;;
65831;SDS011;52593;42.648;23.332;2023-03-14T14:56:28;5.97;;;1.70;;
65831;SDS011;52593;42.648;23.332;2023-03-14T14:59:00;7.50;;;1.98;;
65831;SDS011;52593;42.648;23.332;2023-03-14T15:01:32;4.83;;;1.83;;
65831;SDS011;52593;42.648;23.332;2023-03-14T15:04:04;5.35;;;1.98;;
65831;SDS011;52593;42.648;23.332;2023-03-14T15:06:36;6.03;;;1.88;;
65831;SDS011;52593;42.648;23.332;2023-03-14T15:09:02;6.75;;;1.80;;
65831;SDS011;52593;42.648;23.332;2023-03-14T15:11:27;5.63;;;1.70;;
65831;SDS011;52593;42.648;23.332;2023-03-14T15:13:53;9.63;;;2.50;;
65831;SDS011;52593;42.648;23.332;2023-03-14T15:16:20;5.55;;;1.75;;
65831;SDS011;52593;42.648;23.332;2023-03-14T15:18:54;4.70;;;1.73;;
65831;SDS011;52593;42.648;23.332;2023-03-14T15:21:21;4.50;;;1.58;;
65831;SDS011;52593;42.648;23.332;2023-03-14T15:23:47;4.95;;;1.48;;
65831;SDS011;52593;42.648;23.332;2023-03-14T15:26:13;4.50;;;1.53;;
65831;SDS011;52593;42.648;23.332;2023-03-14T15:28:42;6.05;;;1.75;;
65831;SDS011;52593;42.648;23.332;2023-03-14T15:31:08;6.80;;;1.83;;
65831;SDS011;52593;42.648;23.332;2023-03-14T15:33:35;6.47;;;1.80;;
65831;SDS011;52593;42.648;23.332;2023-03-14T15:36:01;5.93;;;1.70;;
65831;SDS011;52593;42.648;23.332;2023-03-14T15:38:26;5.55;;;1.80;;
65831;SDS011;52593;42.648;23.332;2023-03-14T15:40:52;5.87;;;2.00;;
65831;SDS011;52593;42.648;23.332;2023-03-14T15:43:18;4.68;;;1.73;;